sensor_id;sensor_type;location;lat;lon;timestamp;temperature;humidity
45849;DHT22;31567;54.600;9.842;2022-12-15T00:01:56;-0.50;99.90
45849;DHT22;31567;54.600;9.842;2022-12-15T00:05:53;-0.50;99.90
45849;DHT22;31567;54.600;9.842;2022-12-15T00:09:52;-0.70;99.90
45849;DHT22;31567;54.600;9.842;2022-12-15T00:13:50;-0.80;99.90
45849;DHT22;31567;54.600;9.842;2022-12-15T00:17:48;-0.70;99.90
45849;DHT22;31567;54.600;9.842;2022-12-15T00:21:46;-0.80;99.90
45849;DHT22;31567;54.600;9.842;2022-12-15T00:25:44;-0.80;99.90
45849;DHT22;31567;54.600;9.842;2022-12-15T00:29:42;-0.90;99.90
45849;DHT22;31567;54.600;9.842;2022-12-15T00:33:40;-0.90;99.90
45849;DHT22;31567;54.600;9.842;2022-12-15T00:37:38;-0.90;99.90
45849;DHT22;31567;54.600;9.842;2022-12-15T00:41:36;-0.90;99.90
45849;DHT22;31567;54.600;9.842;2022-12-15T00:45:16;-0.90;99.90
45849;DHT22;31567;54.600;9.842;2022-12-15T00:48:56;-0.90;99.90
45849;DHT22;31567;54.600;9.842;2022-12-15T00:52:35;-0.90;99.90
45849;DHT22;31567;54.600;9.842;2022-12-15T00:56:33;-0.90;99.80
45849;DHT22;31567;54.600;9.842;2022-12-15T01:00:31;-0.90;99.70
45849;DHT22;31567;54.600;9.842;2022-12-15T01:04:30;-0.90;99.70
45849;DHT22;31567;54.600;9.842;2022-12-15T01:08:28;-0.90;99.70
45849;DHT22;31567;54.600;9.842;2022-12-15T01:12:26;-0.90;99.70
45849;DHT22;31567;54.600;9.842;2022-12-15T01:16:24;-1.00;99.60
45849;DHT22;31567;54.600;9.842;2022-12-15T01:20:22;-0.90;99.60
45849;DHT22;31567;54.600;9.842;2022-12-15T01:24:01;-1.00;99.50
45849;DHT22;31567;54.600;9.842;2022-12-15T01:27:41;-1.00;99.50
45849;DHT22;31567;54.600;9.842;2022-12-15T01:31:21;-0.90;99.50
45849;DHT22;31567;54.600;9.842;2022-12-15T01:35:02;-0.80;99.50
45849;DHT22;31567;54.600;9.842;2022-12-15T01:38:41;-0.80;99.40
45849;DHT22;31567;54.600;9.842;2022-12-15T01:42:21;-0.90;99.20
45849;DHT22;31567;54.600;9.842;2022-12-15T01:49:48;-0.80;99.30
45849;DHT22;31567;54.600;9.842;2022-12-15T01:53:31;-0.80;99.20
45849;DHT22;31567;54.600;9.842;2022-12-15T01:57:18;-0.70;99.20
45849;DHT22;31567;54.600;9.842;2022-12-15T02:01:00;-0.70;99.10
45849;DHT22;31567;54.600;9.842;2022-12-15T02:04:41;-0.60;99.10
45849;DHT22;31567;54.600;9.842;2022-12-15T02:08:20;-0.60;99.00
45849;DHT22;31567;54.600;9.842;2022-12-15T02:16:09;-0.40;98.80
45849;DHT22;31567;54.600;9.842;2022-12-15T02:20:12;-0.40;98.80
45849;DHT22;31567;54.600;9.842;2022-12-15T02:32:09;-0.20;98.70
45849;DHT22;31567;54.600;9.842;2022-12-15T02:35:59;-0.10;98.60
45849;DHT22;31567;54.600;9.842;2022-12-15T02:39:40;-0.20;98.60
45849;DHT22;31567;54.600;9.842;2022-12-15T02:43:19;-0.20;98.80
45849;DHT22;31567;54.600;9.842;2022-12-15T02:51:14;-0.20;98.80
45849;DHT22;31567;54.600;9.842;2022-12-15T03:02:34;-0.20;99.30
45849;DHT22;31567;54.600;9.842;2022-12-15T03:06:16;-0.20;99.40
45849;DHT22;31567;54.600;9.842;2022-12-15T03:09:56;-0.10;99.40
45849;DHT22;31567;54.600;9.842;2022-12-15T03:13:36;-0.10;99.30
45849;DHT22;31567;54.600;9.842;2022-12-15T03:17:16;0.00;99.30
45849;DHT22;31567;54.600;9.842;2022-12-15T03:20:56;0.10;99.40
45849;DHT22;31567;54.600;9.842;2022-12-15T03:24:35;0.10;99.40
45849;DHT22;31567;54.600;9.842;2022-12-15T03:28:15;0.20;99.50
45849;DHT22;31567;54.600;9.842;2022-12-15T03:31:55;0.30;99.50
45849;DHT22;31567;54.600;9.842;2022-12-15T03:35:34;0.30;99.50
45849;DHT22;31567;54.600;9.842;2022-12-15T03:39:14;0.40;99.70
45849;DHT22;31567;54.600;9.842;2022-12-15T03:42:53;0.50;99.80
45849;DHT22;31567;54.600;9.842;2022-12-15T03:46:33;0.60;99.90
45849;DHT22;31567;54.600;9.842;2022-12-15T03:50:15;0.60;99.90
45849;DHT22;31567;54.600;9.842;2022-12-15T03:53:54;0.60;99.90
45849;DHT22;31567;54.600;9.842;2022-12-15T03:57:34;0.60;99.90
45849;DHT22;31567;54.600;9.842;2022-12-15T04:04:59;0.50;99.90
45849;DHT22;31567;54.600;9.842;2022-12-15T04:08:39;0.50;99.90
45849;DHT22;31567;54.600;9.842;2022-12-15T04:12:18;0.50;99.90
45849;DHT22;31567;54.600;9.842;2022-12-15T04:16:01;0.40;99.90
45849;DHT22;31567;54.600;9.842;2022-12-15T04:19:40;0.40;99.90
45849;DHT22;31567;54.600;9.842;2022-12-15T04:23:55;0.30;99.90
45849;DHT22;31567;54.600;9.842;2022-12-15T04:27:54;0.30;99.90
45849;DHT22;31567;54.600;9.842;2022-12-15T04:31:52;0.30;99.90
45849;DHT22;31567;54.600;9.842;2022-12-15T04:35:51;0.30;99.90
45849;DHT22;31567;54.600;9.842;2022-12-15T04:39:50;0.30;99.90
45849;DHT22;31567;54.600;9.842;2022-12-15T04:43:50;0.20;99.90
45849;DHT22;31567;54.600;9.842;2022-12-15T04:47:48;0.30;99.90
45849;DHT22;31567;54.600;9.842;2022-12-15T04:51:46;0.30;99.90
45849;DHT22;31567;54.600;9.842;2022-12-15T04:55:44;0.20;99.90
45849;DHT22;31567;54.600;9.842;2022-12-15T04:59:42;0.20;99.90
45849;DHT22;31567;54.600;9.842;2022-12-15T05:03:41;0.20;99.90
45849;DHT22;31567;54.600;9.842;2022-12-15T05:07:39;0.10;99.90
45849;DHT22;31567;54.600;9.842;2022-12-15T05:11:37;0.00;99.90
45849;DHT22;31567;54.600;9.842;2022-12-15T05:15:35;-0.10;99.90
45849;DHT22;31567;54.600;9.842;2022-12-15T05:19:33;-0.20;99.90
45849;DHT22;31567;54.600;9.842;2022-12-15T05:23:31;-0.20;99.90
45849;DHT22;31567;54.600;9.842;2022-12-15T05:27:29;-0.30;99.90
45849;DHT22;31567;54.600;9.842;2022-12-15T05:31:27;-0.40;99.90
45849;DHT22;31567;54.600;9.842;2022-12-15T05:35:45;-0.40;99.90
45849;DHT22;31567;54.600;9.842;2022-12-15T05:39:25;-0.40;99.90
45849;DHT22;31567;54.600;9.842;2022-12-15T05:43:07;-0.30;99.90
45849;DHT22;31567;54.600;9.842;2022-12-15T05:46:47;-0.30;99.90
45849;DHT22;31567;54.600;9.842;2022-12-15T05:50:26;-0.30;99.90
45849;DHT22;31567;54.600;9.842;2022-12-15T05:54:10;-0.30;99.90
45849;DHT22;31567;54.600;9.842;2022-12-15T05:57:51;-0.20;99.90
45849;DHT22;31567;54.600;9.842;2022-12-15T06:01:31;-0.20;99.90
45849;DHT22;31567;54.600;9.842;2022-12-15T06:05:11;-0.20;99.90
45849;DHT22;31567;54.600;9.842;2022-12-15T06:08:51;-0.20;99.90
45849;DHT22;31567;54.600;9.842;2022-12-15T06:12:30;-0.20;99.90
45849;DHT22;31567;54.600;9.842;2022-12-15T06:16:13;-0.20;99.90
45849;DHT22;31567;54.600;9.842;2022-12-15T06:19:52;-0.20;99.90
45849;DHT22;31567;54.600;9.842;2022-12-15T06:23:32;-0.20;99.90
45849;DHT22;31567;54.600;9.842;2022-12-15T06:27:12;-0.20;99.90
45849;DHT22;31567;54.600;9.842;2022-12-15T06:30:53;-0.30;99.60
45849;DHT22;31567;54.600;9.842;2022-12-15T06:34:33;-0.40;99.30
45849;DHT22;31567;54.600;9.842;2022-12-15T06:38:12;-0.40;99.50
45849;DHT22;31567;54.600;9.842;2022-12-15T06:41:52;-0.40;99.60
45849;DHT22;31567;54.600;9.842;2022-12-15T06:45:32;-0.40;99.70
45849;DHT22;31567;54.600;9.842;2022-12-15T06:49:12;-0.30;99.80
45849;DHT22;31567;54.600;9.842;2022-12-15T06:52:51;-0.30;99.80
45849;DHT22;31567;54.600;9.842;2022-12-15T06:56:33;-0.20;99.90
45849;DHT22;31567;54.600;9.842;2022-12-15T07:00:17;-0.20;99.90
45849;DHT22;31567;54.600;9.842;2022-12-15T07:03:57;-0.10;99.90
45849;DHT22;31567;54.600;9.842;2022-12-15T07:07:41;0.00;99.90
45849;DHT22;31567;54.600;9.842;2022-12-15T07:11:21;0.00;99.90
45849;DHT22;31567;54.600;9.842;2022-12-15T07:15:00;0.00;99.80
45849;DHT22;31567;54.600;9.842;2022-12-15T07:18:41;0.10;99.90
45849;DHT22;31567;54.600;9.842;2022-12-15T07:22:20;0.10;99.80
45849;DHT22;31567;54.600;9.842;2022-12-15T07:26:05;0.20;99.80
45849;DHT22;31567;54.600;9.842;2022-12-15T07:29:45;0.20;99.80
45849;DHT22;31567;54.600;9.842;2022-12-15T07:33:25;0.20;99.70
45849;DHT22;31567;54.600;9.842;2022-12-15T07:37:05;0.20;99.70
45849;DHT22;31567;54.600;9.842;2022-12-15T07:40:44;0.20;99.70
45849;DHT22;31567;54.600;9.842;2022-12-15T07:44:24;0.30;99.70
45849;DHT22;31567;54.600;9.842;2022-12-15T07:48:04;0.40;99.70
45849;DHT22;31567;54.600;9.842;2022-12-15T07:51:43;0.50;99.70
45849;DHT22;31567;54.600;9.842;2022-12-15T07:55:23;0.60;99.60
45849;DHT22;31567;54.600;9.842;2022-12-15T07:59:04;0.60;99.50
45849;DHT22;31567;54.600;9.842;2022-12-15T08:02:44;0.70;99.50
45849;DHT22;31567;54.600;9.842;2022-12-15T08:06:23;0.70;99.60
45849;DHT22;31567;54.600;9.842;2022-12-15T08:10:03;0.80;99.40
45849;DHT22;31567;54.600;9.842;2022-12-15T08:13:43;0.90;99.40
45849;DHT22;31567;54.600;9.842;2022-12-15T08:17:23;0.90;99.30
45849;DHT22;31567;54.600;9.842;2022-12-15T08:21:07;0.90;99.30
45849;DHT22;31567;54.600;9.842;2022-12-15T08:24:47;1.00;99.20
45849;DHT22;31567;54.600;9.842;2022-12-15T08:28:28;1.00;99.30
45849;DHT22;31567;54.600;9.842;2022-12-15T08:32:07;1.10;99.20
45849;DHT22;31567;54.600;9.842;2022-12-15T08:35:47;1.10;99.20
45849;DHT22;31567;54.600;9.842;2022-12-15T08:39:26;1.20;99.30
45849;DHT22;31567;54.600;9.842;2022-12-15T08:43:06;1.30;99.30
45849;DHT22;31567;54.600;9.842;2022-12-15T08:46:46;1.30;99.20
45849;DHT22;31567;54.600;9.842;2022-12-15T08:50:25;1.40;99.20
45849;DHT22;31567;54.600;9.842;2022-12-15T08:54:05;1.50;99.10
45849;DHT22;31567;54.600;9.842;2022-12-15T08:57:44;1.50;99.10
45849;DHT22;31567;54.600;9.842;2022-12-15T09:01:26;1.50;99.00
45849;DHT22;31567;54.600;9.842;2022-12-15T09:05:06;1.50;99.10
45849;DHT22;31567;54.600;9.842;2022-12-15T09:08:46;1.50;99.00
45849;DHT22;31567;54.600;9.842;2022-12-15T09:12:25;1.40;99.00
45849;DHT22;31567;54.600;9.842;2022-12-15T09:16:08;1.50;99.10
45849;DHT22;31567;54.600;9.842;2022-12-15T09:19:51;1.50;99.10
45849;DHT22;31567;54.600;9.842;2022-12-15T09:23:31;1.50;99.20
45849;DHT22;31567;54.600;9.842;2022-12-15T09:27:11;1.60;99.20
45849;DHT22;31567;54.600;9.842;2022-12-15T09:30:50;1.70;99.20
45849;DHT22;31567;54.600;9.842;2022-12-15T09:34:30;1.70;99.10
45849;DHT22;31567;54.600;9.842;2022-12-15T09:38:09;1.90;99.10
45849;DHT22;31567;54.600;9.842;2022-12-15T09:41:54;1.80;99.00
45849;DHT22;31567;54.600;9.842;2022-12-15T09:45:41;1.90;99.00
45849;DHT22;31567;54.600;9.842;2022-12-15T09:53:11;1.90;99.00
45849;DHT22;31567;54.600;9.842;2022-12-15T09:56:54;2.00;99.00
45849;DHT22;31567;54.600;9.842;2022-12-15T10:08:21;2.20;99.00
45849;DHT22;31567;54.600;9.842;2022-12-15T10:16:20;2.30;99.00
45849;DHT22;31567;54.600;9.842;2022-12-15T10:20:05;2.30;99.00
45849;DHT22;31567;54.600;9.842;2022-12-15T10:23:47;2.40;99.10
45849;DHT22;31567;54.600;9.842;2022-12-15T10:35:25;2.60;99.00
45849;DHT22;31567;54.600;9.842;2022-12-15T10:39:07;2.60;99.00
45849;DHT22;31567;54.600;9.842;2022-12-15T10:42:48;2.50;98.90
45849;DHT22;31567;54.600;9.842;2022-12-15T10:46:29;2.60;98.90
45849;DHT22;31567;54.600;9.842;2022-12-15T10:50:22;2.60;98.90
45849;DHT22;31567;54.600;9.842;2022-12-15T10:58:00;2.70;98.90
45849;DHT22;31567;54.600;9.842;2022-12-15T11:01:40;2.80;98.80
45849;DHT22;31567;54.600;9.842;2022-12-15T11:05:20;2.90;98.80
45849;DHT22;31567;54.600;9.842;2022-12-15T11:09:19;3.00;98.80
45849;DHT22;31567;54.600;9.842;2022-12-15T11:13:14;3.10;98.80
45849;DHT22;31567;54.600;9.842;2022-12-15T11:16:57;3.10;98.90
45849;DHT22;31567;54.600;9.842;2022-12-15T11:20:44;3.20;98.50
45849;DHT22;31567;54.600;9.842;2022-12-15T11:25:08;3.20;98.50
45849;DHT22;31567;54.600;9.842;2022-12-15T11:28:44;3.20;98.80
45849;DHT22;31567;54.600;9.842;2022-12-15T11:32:31;3.20;98.60
45849;DHT22;31567;54.600;9.842;2022-12-15T11:40:33;3.20;98.60
45849;DHT22;31567;54.600;9.842;2022-12-15T11:44:52;3.20;98.60
45849;DHT22;31567;54.600;9.842;2022-12-15T11:56:28;3.00;98.90
45849;DHT22;31567;54.600;9.842;2022-12-15T12:00:15;3.00;99.00
45849;DHT22;31567;54.600;9.842;2022-12-15T12:04:19;2.90;99.10
45849;DHT22;31567;54.600;9.842;2022-12-15T12:12:12;3.00;99.20
45849;DHT22;31567;54.600;9.842;2022-12-15T12:16:05;3.00;99.20
45849;DHT22;31567;54.600;9.842;2022-12-15T12:19:52;3.10;99.30
45849;DHT22;31567;54.600;9.842;2022-12-15T12:23:59;3.10;99.30
45849;DHT22;31567;54.600;9.842;2022-12-15T12:27:43;3.10;99.20
45849;DHT22;31567;54.600;9.842;2022-12-15T12:35:43;3.00;99.40
45849;DHT22;31567;54.600;9.842;2022-12-15T12:39:24;2.90;99.50
45849;DHT22;31567;54.600;9.842;2022-12-15T12:43:04;2.90;99.50
45849;DHT22;31567;54.600;9.842;2022-12-15T12:46:49;2.90;99.60
45849;DHT22;31567;54.600;9.842;2022-12-15T12:50:31;2.80;99.60
45849;DHT22;31567;54.600;9.842;2022-12-15T13:06:19;3.10;99.80
45849;DHT22;31567;54.600;9.842;2022-12-15T13:10:19;3.20;99.80
45849;DHT22;31567;54.600;9.842;2022-12-15T13:14:01;3.30;99.70
45849;DHT22;31567;54.600;9.842;2022-12-15T13:17:43;3.30;99.60
45849;DHT22;31567;54.600;9.842;2022-12-15T13:25:42;3.40;99.50
45849;DHT22;31567;54.600;9.842;2022-12-15T13:29:25;3.40;99.30
45849;DHT22;31567;54.600;9.842;2022-12-15T13:33:16;3.40;99.10
45849;DHT22;31567;54.600;9.842;2022-12-15T13:36:57;3.40;99.20
45849;DHT22;31567;54.600;9.842;2022-12-15T13:40:58;3.40;99.20
45849;DHT22;31567;54.600;9.842;2022-12-15T13:44:41;3.40;99.10
45849;DHT22;31567;54.600;9.842;2022-12-15T13:48:38;3.40;99.00
45849;DHT22;31567;54.600;9.842;2022-12-15T13:52:33;3.50;99.10
45849;DHT22;31567;54.600;9.842;2022-12-15T13:56:48;3.40;98.90
45849;DHT22;31567;54.600;9.842;2022-12-15T14:00:26;3.40;98.80
45849;DHT22;31567;54.600;9.842;2022-12-15T14:04:12;3.50;98.80
45849;DHT22;31567;54.600;9.842;2022-12-15T14:11:36;3.50;98.60
45849;DHT22;31567;54.600;9.842;2022-12-15T14:15:18;3.50;98.60
45849;DHT22;31567;54.600;9.842;2022-12-15T14:19:13;3.40;98.60
45849;DHT22;31567;54.600;9.842;2022-12-15T14:22:53;3.40;98.50
45849;DHT22;31567;54.600;9.842;2022-12-15T14:26:33;3.40;98.60
45849;DHT22;31567;54.600;9.842;2022-12-15T14:30:29;3.40;98.50
45849;DHT22;31567;54.600;9.842;2022-12-15T14:34:29;3.30;98.50
45849;DHT22;31567;54.600;9.842;2022-12-15T14:38:14;3.30;98.60
45849;DHT22;31567;54.600;9.842;2022-12-15T14:41:56;3.40;98.60
45849;DHT22;31567;54.600;9.842;2022-12-15T14:45:36;3.40;98.60
45849;DHT22;31567;54.600;9.842;2022-12-15T14:49:23;3.40;98.50
45849;DHT22;31567;54.600;9.842;2022-12-15T14:53:14;3.40;98.60
45849;DHT22;31567;54.600;9.842;2022-12-15T15:00:49;3.30;98.50
45849;DHT22;31567;54.600;9.842;2022-12-15T15:04:33;3.30;98.50
45849;DHT22;31567;54.600;9.842;2022-12-15T15:08:14;3.30;98.60
45849;DHT22;31567;54.600;9.842;2022-12-15T15:12:03;3.40;98.60
45849;DHT22;31567;54.600;9.842;2022-12-15T15:15:54;3.40;98.60
45849;DHT22;31567;54.600;9.842;2022-12-15T15:19:36;3.40;98.50
45849;DHT22;31567;54.600;9.842;2022-12-15T15:23:18;3.40;98.80
45849;DHT22;31567;54.600;9.842;2022-12-15T15:27:23;3.30;98.50
45849;DHT22;31567;54.600;9.842;2022-12-15T15:31:36;3.20;98.50
45849;DHT22;31567;54.600;9.842;2022-12-15T15:35:16;3.20;98.70
45849;DHT22;31567;54.600;9.842;2022-12-15T15:38:57;3.30;98.70
45849;DHT22;31567;54.600;9.842;2022-12-15T15:42:37;3.30;98.80
45849;DHT22;31567;54.600;9.842;2022-12-15T15:46:19;3.30;98.80
45849;DHT22;31567;54.600;9.842;2022-12-15T15:50:00;3.30;98.80
45849;DHT22;31567;54.600;9.842;2022-12-15T15:53:40;3.30;98.80
45849;DHT22;31567;54.600;9.842;2022-12-15T15:57:19;3.40;98.90
45849;DHT22;31567;54.600;9.842;2022-12-15T16:00:59;3.40;98.90
45849;DHT22;31567;54.600;9.842;2022-12-15T16:04:39;3.40;98.90
45849;DHT22;31567;54.600;9.842;2022-12-15T16:08:23;3.40;98.90
45849;DHT22;31567;54.600;9.842;2022-12-15T16:12:05;3.40;98.90
45849;DHT22;31567;54.600;9.842;2022-12-15T16:15:44;3.50;98.80
45849;DHT22;31567;54.600;9.842;2022-12-15T16:19:24;3.50;98.80
45849;DHT22;31567;54.600;9.842;2022-12-15T16:23:18;3.50;98.70
45849;DHT22;31567;54.600;9.842;2022-12-15T16:26:59;3.50;98.70
45849;DHT22;31567;54.600;9.842;2022-12-15T16:30:39;3.50;98.70
45849;DHT22;31567;54.600;9.842;2022-12-15T16:34:18;3.50;98.80
45849;DHT22;31567;54.600;9.842;2022-12-15T16:37:58;3.50;98.80
45849;DHT22;31567;54.600;9.842;2022-12-15T16:41:38;3.50;98.70
45849;DHT22;31567;54.600;9.842;2022-12-15T16:45:20;3.50;98.70
45849;DHT22;31567;54.600;9.842;2022-12-15T16:48:59;3.50;98.70
45849;DHT22;31567;54.600;9.842;2022-12-15T16:52:40;3.50;98.70
45849;DHT22;31567;54.600;9.842;2022-12-15T16:56:20;3.50;98.70
45849;DHT22;31567;54.600;9.842;2022-12-15T17:00:00;3.50;98.70
45849;DHT22;31567;54.600;9.842;2022-12-15T17:03:40;3.50;98.90
45849;DHT22;31567;54.600;9.842;2022-12-15T17:07:23;3.50;98.70
45849;DHT22;31567;54.600;9.842;2022-12-15T17:11:05;3.50;98.70
45849;DHT22;31567;54.600;9.842;2022-12-15T17:14:45;3.50;98.80
45849;DHT22;31567;54.600;9.842;2022-12-15T17:18:25;3.50;98.80
45849;DHT22;31567;54.600;9.842;2022-12-15T17:22:04;3.60;98.90
45849;DHT22;31567;54.600;9.842;2022-12-15T17:25:46;3.50;98.70
45849;DHT22;31567;54.600;9.842;2022-12-15T17:29:26;3.60;98.70
45849;DHT22;31567;54.600;9.842;2022-12-15T17:33:20;3.60;98.70
45849;DHT22;31567;54.600;9.842;2022-12-15T17:37:02;3.60;98.70
45849;DHT22;31567;54.600;9.842;2022-12-15T17:40:43;3.60;98.70
45849;DHT22;31567;54.600;9.842;2022-12-15T17:44:25;3.60;98.70
45849;DHT22;31567;54.600;9.842;2022-12-15T17:48:05;3.60;98.70
45849;DHT22;31567;54.600;9.842;2022-12-15T17:51:46;3.60;98.70
45849;DHT22;31567;54.600;9.842;2022-12-15T17:55:27;3.60;98.70
45849;DHT22;31567;54.600;9.842;2022-12-15T17:59:18;3.60;98.70
45849;DHT22;31567;54.600;9.842;2022-12-15T18:03:01;3.60;98.70
45849;DHT22;31567;54.600;9.842;2022-12-15T18:06:41;3.50;98.60
45849;DHT22;31567;54.600;9.842;2022-12-15T18:10:31;3.50;98.60
45849;DHT22;31567;54.600;9.842;2022-12-15T18:14:18;3.40;98.60
45849;DHT22;31567;54.600;9.842;2022-12-15T18:17:58;3.40;98.70
45849;DHT22;31567;54.600;9.842;2022-12-15T18:21:39;3.40;98.90
45849;DHT22;31567;54.600;9.842;2022-12-15T18:25:22;3.40;99.00
45849;DHT22;31567;54.600;9.842;2022-12-15T18:29:15;3.50;99.00
45849;DHT22;31567;54.600;9.842;2022-12-15T18:32:57;3.60;99.00
45849;DHT22;31567;54.600;9.842;2022-12-15T18:36:37;3.60;99.00
45849;DHT22;31567;54.600;9.842;2022-12-15T18:40:24;3.60;99.10
45849;DHT22;31567;54.600;9.842;2022-12-15T18:44:04;3.60;99.10
45849;DHT22;31567;54.600;9.842;2022-12-15T18:47:44;3.70;99.10
45849;DHT22;31567;54.600;9.842;2022-12-15T18:51:24;3.70;99.10
45849;DHT22;31567;54.600;9.842;2022-12-15T18:55:14;3.70;99.00
45849;DHT22;31567;54.600;9.842;2022-12-15T18:58:54;3.70;99.00
45849;DHT22;31567;54.600;9.842;2022-12-15T19:02:34;3.60;99.00
45849;DHT22;31567;54.600;9.842;2022-12-15T19:06:34;3.60;99.40
45849;DHT22;31567;54.600;9.842;2022-12-15T19:10:16;3.60;99.20
45849;DHT22;31567;54.600;9.842;2022-12-15T19:14:00;3.70;99.30
45849;DHT22;31567;54.600;9.842;2022-12-15T19:17:40;3.70;99.30
45849;DHT22;31567;54.600;9.842;2022-12-15T19:21:38;3.70;99.30
45849;DHT22;31567;54.600;9.842;2022-12-15T19:25:28;3.70;99.40
45849;DHT22;31567;54.600;9.842;2022-12-15T19:29:19;3.80;99.40
45849;DHT22;31567;54.600;9.842;2022-12-15T19:33:00;3.80;99.50
45849;DHT22;31567;54.600;9.842;2022-12-15T19:36:39;3.80;99.50
45849;DHT22;31567;54.600;9.842;2022-12-15T19:40:21;3.80;99.60
45849;DHT22;31567;54.600;9.842;2022-12-15T19:44:02;3.80;99.70
45849;DHT22;31567;54.600;9.842;2022-12-15T19:47:44;3.80;99.70
45849;DHT22;31567;54.600;9.842;2022-12-15T19:51:24;3.70;99.80
45849;DHT22;31567;54.600;9.842;2022-12-15T19:55:04;3.80;99.90
45849;DHT22;31567;54.600;9.842;2022-12-15T19:58:44;3.70;99.90
45849;DHT22;31567;54.600;9.842;2022-12-15T20:02:23;3.70;99.90
45849;DHT22;31567;54.600;9.842;2022-12-15T20:06:10;3.70;99.90
45849;DHT22;31567;54.600;9.842;2022-12-15T20:09:51;3.70;99.90
45849;DHT22;31567;54.600;9.842;2022-12-15T20:13:31;3.70;99.90
45849;DHT22;31567;54.600;9.842;2022-12-15T20:17:10;3.80;99.90
45849;DHT22;31567;54.600;9.842;2022-12-15T20:20:50;3.80;99.90
45849;DHT22;31567;54.600;9.842;2022-12-15T20:24:30;3.80;99.90
45849;DHT22;31567;54.600;9.842;2022-12-15T20:28:20;3.80;99.90
45849;DHT22;31567;54.600;9.842;2022-12-15T20:32:00;3.80;99.90
45849;DHT22;31567;54.600;9.842;2022-12-15T20:35:41;3.80;99.90
45849;DHT22;31567;54.600;9.842;2022-12-15T20:39:24;3.80;99.90
45849;DHT22;31567;54.600;9.842;2022-12-15T20:43:14;3.80;99.90
45849;DHT22;31567;54.600;9.842;2022-12-15T20:46:54;3.90;99.90
45849;DHT22;31567;54.600;9.842;2022-12-15T20:50:36;3.90;99.90
45849;DHT22;31567;54.600;9.842;2022-12-15T20:54:19;3.90;99.90
45849;DHT22;31567;54.600;9.842;2022-12-15T20:57:59;4.00;99.90
45849;DHT22;31567;54.600;9.842;2022-12-15T21:01:38;4.00;99.90
45849;DHT22;31567;54.600;9.842;2022-12-15T21:05:21;4.00;99.90
45849;DHT22;31567;54.600;9.842;2022-12-15T21:09:00;4.00;99.90
45849;DHT22;31567;54.600;9.842;2022-12-15T21:12:42;4.00;99.90
45849;DHT22;31567;54.600;9.842;2022-12-15T21:16:25;4.10;99.90
45849;DHT22;31567;54.600;9.842;2022-12-15T21:20:05;4.00;99.90
45849;DHT22;31567;54.600;9.842;2022-12-15T21:23:44;4.00;99.90
45849;DHT22;31567;54.600;9.842;2022-12-15T21:27:24;4.00;99.90
45849;DHT22;31567;54.600;9.842;2022-12-15T21:31:04;4.00;99.90
45849;DHT22;31567;54.600;9.842;2022-12-15T21:34:44;3.90;99.90
45849;DHT22;31567;54.600;9.842;2022-12-15T21:42:13;3.90;99.90
45849;DHT22;31567;54.600;9.842;2022-12-15T21:45:54;3.80;99.90
45849;DHT22;31567;54.600;9.842;2022-12-15T21:49:33;3.90;99.90
45849;DHT22;31567;54.600;9.842;2022-12-15T21:53:13;3.80;99.90
45849;DHT22;31567;54.600;9.842;2022-12-15T21:56:55;3.80;99.90
45849;DHT22;31567;54.600;9.842;2022-12-15T22:00:35;3.80;99.90
45849;DHT22;31567;54.600;9.842;2022-12-15T22:04:19;3.80;99.90
45849;DHT22;31567;54.600;9.842;2022-12-15T22:08:17;3.70;99.90
45849;DHT22;31567;54.600;9.842;2022-12-15T22:11:57;3.70;99.90
45849;DHT22;31567;54.600;9.842;2022-12-15T22:15:37;3.70;99.90
45849;DHT22;31567;54.600;9.842;2022-12-15T22:19:17;3.70;99.90
45849;DHT22;31567;54.600;9.842;2022-12-15T22:22:56;3.60;99.90
45849;DHT22;31567;54.600;9.842;2022-12-15T22:26:37;3.60;99.90
45849;DHT22;31567;54.600;9.842;2022-12-15T22:30:25;3.70;99.90
45849;DHT22;31567;54.600;9.842;2022-12-15T22:34:15;3.70;99.90
45849;DHT22;31567;54.600;9.842;2022-12-15T22:37:55;3.70;99.90
45849;DHT22;31567;54.600;9.842;2022-12-15T22:41:35;3.70;99.90
45849;DHT22;31567;54.600;9.842;2022-12-15T22:45:17;3.60;99.90
45849;DHT22;31567;54.600;9.842;2022-12-15T22:48:57;3.60;99.90
45849;DHT22;31567;54.600;9.842;2022-12-15T22:52:36;3.50;99.90
45849;DHT22;31567;54.600;9.842;2022-12-15T22:56:23;3.50;99.90
45849;DHT22;31567;54.600;9.842;2022-12-15T23:00:06;3.50;99.90
45849;DHT22;31567;54.600;9.842;2022-12-15T23:03:46;3.60;99.90
45849;DHT22;31567;54.600;9.842;2022-12-15T23:07:26;3.50;99.90
45849;DHT22;31567;54.600;9.842;2022-12-15T23:11:06;3.60;99.90
45849;DHT22;31567;54.600;9.842;2022-12-15T23:15:05;3.60;99.90
45849;DHT22;31567;54.600;9.842;2022-12-15T23:19:03;3.60;99.90
45849;DHT22;31567;54.600;9.842;2022-12-15T23:22:43;3.60;99.90
45849;DHT22;31567;54.600;9.842;2022-12-15T23:26:22;3.70;99.90
45849;DHT22;31567;54.600;9.842;2022-12-15T23:30:02;3.70;99.80
45849;DHT22;31567;54.600;9.842;2022-12-15T23:33:42;3.70;99.80
45849;DHT22;31567;54.600;9.842;2022-12-15T23:37:22;3.70;99.70
45849;DHT22;31567;54.600;9.842;2022-12-15T23:41:01;3.70;99.60
45849;DHT22;31567;54.600;9.842;2022-12-15T23:44:41;3.70;99.50
45849;DHT22;31567;54.600;9.842;2022-12-15T23:48:21;3.70;99.50
45849;DHT22;31567;54.600;9.842;2022-12-15T23:52:00;3.60;99.30
45849;DHT22;31567;54.600;9.842;2022-12-15T23:55:40;3.60;99.20
45849;DHT22;31567;54.600;9.842;2022-12-15T23:59:19;3.60;99.10
